createdAt,value
2019-02-03T00:00:29.206Z,99.99
2019-02-03T00:01:27.828Z,99.99
2019-02-03T00:02:26.424Z,99.99
2019-02-03T00:03:25.012Z,99.99
2019-02-03T00:04:23.655Z,99.99
2019-02-03T00:05:22.190Z,99.99
2019-02-03T00:06:20.739Z,99.99
2019-02-03T00:07:19.325Z,99.99
2019-02-03T00:08:17.973Z,99.99
2019-02-03T00:09:16.560Z,99.99
2019-02-03T00:10:15.113Z,99.99
2019-02-03T00:11:13.670Z,99.99
2019-02-03T00:12:12.236Z,99.99
2019-02-03T00:13:10.851Z,99.99
2019-02-03T00:14:09.468Z,99.99
2019-02-03T00:15:08.030Z,99.99
2019-02-03T00:16:06.636Z,99.99
2019-02-03T00:17:05.342Z,99.99
2019-02-03T00:18:03.908Z,99.99
2019-02-03T00:19:02.450Z,99.99
2019-02-03T00:20:01.187Z,99.99
2019-02-03T00:20:59.900Z,99.99
2019-02-03T00:21:58.483Z,99.99
2019-02-03T00:22:57.122Z,99.99
2019-02-03T00:23:55.761Z,99.99
2019-02-03T00:24:54.374Z,99.99
2019-02-03T00:25:53.130Z,99.99
2019-02-03T00:26:51.702Z,99.99
2019-02-03T00:27:50.239Z,99.99
2019-02-03T00:28:48.761Z,99.99
2019-02-03T00:29:47.321Z,99.99
2019-02-03T00:30:45.862Z,99.99
2019-02-03T00:31:44.401Z,99.99
2019-02-03T00:32:43.111Z,99.99
2019-02-03T00:33:41.660Z,99.99
2019-02-03T00:34:40.194Z,99.99
2019-02-03T00:35:38.767Z,99.99
2019-02-03T00:36:37.429Z,99.99
2019-02-03T00:37:36.030Z,99.99
2019-02-03T00:38:34.611Z,99.99
2019-02-03T00:39:33.097Z,99.99
2019-02-03T00:40:31.858Z,99.99
2019-02-03T00:41:30.280Z,99.99
2019-02-03T00:42:28.832Z,99.99
2019-02-03T00:43:27.437Z,99.99
2019-02-03T00:44:26.007Z,99.99
2019-02-03T00:45:24.551Z,99.99
2019-02-03T00:46:23.078Z,99.99
2019-02-03T00:47:21.623Z,99.99
2019-02-03T00:48:20.170Z,99.99
2019-02-03T00:49:18.708Z,99.99
2019-02-03T00:50:17.557Z,99.99
2019-02-03T00:51:16.120Z,99.99
2019-02-03T00:52:14.688Z,99.99
2019-02-03T00:53:13.475Z,99.99
2019-02-03T00:54:12.103Z,99.99
2019-02-03T00:55:10.632Z,99.99
2019-02-03T00:56:09.190Z,99.99
2019-02-03T00:57:07.752Z,99.99
2019-02-03T00:58:06.303Z,99.99
2019-02-03T00:59:04.875Z,99.99
2019-02-03T01:00:03.598Z,99.99
2019-02-03T01:01:02.161Z,99.99
2019-02-03T01:02:00.806Z,99.99
2019-02-03T01:02:59.382Z,99.99
2019-02-03T01:03:57.956Z,99.99
2019-02-03T01:04:56.523Z,99.99
2019-02-03T01:05:55.155Z,99.99
2019-02-03T01:06:53.773Z,99.99
2019-02-03T01:07:52.347Z,99.99
2019-02-03T01:08:50.986Z,99.99
2019-02-03T01:09:49.515Z,99.99
2019-02-03T01:10:48.117Z,99.99
2019-02-03T01:11:46.635Z,99.99
2019-02-03T01:12:45.207Z,99.99
2019-02-03T01:13:43.808Z,99.99
2019-02-03T01:14:42.333Z,99.99
2019-02-03T01:15:40.913Z,99.99
2019-02-03T01:16:39.508Z,99.99
2019-02-03T01:17:38.073Z,99.64
2019-02-03T01:18:36.704Z,99.55
2019-02-03T01:19:35.371Z,98.88
2019-02-03T01:20:34.007Z,99.16
2019-02-03T01:21:32.559Z,99.07
2019-02-03T01:22:31.089Z,99.07
2019-02-03T01:23:29.641Z,98.88
2019-02-03T01:24:28.279Z,98.69
2019-02-03T01:25:26.858Z,99.16
2019-02-03T01:26:25.654Z,99.07
2019-02-03T01:27:24.197Z,99.07
2019-02-03T01:28:22.763Z,98.79
2019-02-03T01:29:21.384Z,98.46
2019-02-03T01:30:19.943Z,98.31
2019-02-03T01:31:18.501Z,98.36
2019-02-03T01:32:17.110Z,97.69
2019-02-03T01:33:15.711Z,97.79
2019-02-03T01:34:14.368Z,97.74
2019-02-03T01:35:12.800Z,97.83
2019-02-03T01:36:11.367Z,98.12
2019-02-03T01:37:09.930Z,97.83
2019-02-03T01:38:08.490Z,97.74
2019-02-03T01:39:07.028Z,97.36
2019-02-03T01:40:05.798Z,97.17
2019-02-03T01:41:04.365Z,97.93
2019-02-03T01:42:02.952Z,97.45
2019-02-03T01:43:01.698Z,97.64
2019-02-03T01:44:00.269Z,98.12
2019-02-03T01:44:58.795Z,97.55
2019-02-03T01:45:57.409Z,97.74
2019-02-03T01:46:56.109Z,97.55
2019-02-03T01:47:54.656Z,97.55
2019-02-03T01:48:53.358Z,97.55
2019-02-03T01:49:51.970Z,97.74
2019-02-03T01:50:50.544Z,97.45
2019-02-03T01:51:49.312Z,97.83
2019-02-03T01:52:47.863Z,97.36
2019-02-03T01:53:46.420Z,97.55
2019-02-03T01:54:45.008Z,97.17
2019-02-03T01:55:43.646Z,97.08
2019-02-03T01:56:42.324Z,96.98
2019-02-03T01:57:40.918Z,96.79
2019-02-03T01:58:39.516Z,97.17
2019-02-03T01:59:38.069Z,97.22
2019-02-03T02:00:36.724Z,97.5
2019-02-03T02:01:35.547Z,98.07
2019-02-03T02:02:34.125Z,97.5
2019-02-03T02:03:32.681Z,97.88
2019-02-03T02:04:31.252Z,98.36
2019-02-03T02:05:29.858Z,97.97
2019-02-03T02:06:28.467Z,97.97
2019-02-03T02:07:27.014Z,99.11
2019-02-03T02:08:25.674Z,99.02
2019-02-03T02:09:24.224Z,98.64
2019-02-03T02:10:22.889Z,98.17
2019-02-03T02:11:21.493Z,98.45
2019-02-03T02:12:20.141Z,98.55
2019-02-03T02:13:18.680Z,98.55
2019-02-03T02:14:17.334Z,98.17
2019-02-03T02:15:15.995Z,98.93
2019-02-03T02:16:14.534Z,98.45
2019-02-03T02:17:13.094Z,97.97
2019-02-03T02:18:11.649Z,97.5
2019-02-03T02:19:10.186Z,98.07
2019-02-03T02:20:08.735Z,97.88
2019-02-03T02:21:07.552Z,97.88
2019-02-03T02:22:06.144Z,98.17
2019-02-03T02:23:04.690Z,98.26
2019-02-03T02:24:03.491Z,97.78
2019-02-03T02:25:02.114Z,98.26
2019-02-03T02:26:00.659Z,98.55
2019-02-03T02:26:59.227Z,98.17
2019-02-03T02:27:57.780Z,98.26
2019-02-03T02:28:56.316Z,98.07
2019-02-03T02:29:54.957Z,97.88
2019-02-03T02:30:53.748Z,98.36
2019-02-03T02:31:52.290Z,97.88
2019-02-03T02:32:50.845Z,97.88
2019-02-03T02:33:50.176Z,98.07
2019-02-03T02:34:48.748Z,98.07
2019-02-03T02:35:47.612Z,97.88
2019-02-03T02:36:46.172Z,98.07
2019-02-03T02:37:44.759Z,97.88
2019-02-03T02:38:43.381Z,98.26
2019-02-03T02:39:41.912Z,98.93
2019-02-03T02:40:40.491Z,99.3
2019-02-03T02:41:39.019Z,98.64
2019-02-03T02:42:37.539Z,98.74
2019-02-03T02:43:36.103Z,99.21
2019-02-03T02:44:34.666Z,99.02
2019-02-03T02:45:33.430Z,98.69
2019-02-03T02:46:32.014Z,99.02
2019-02-03T02:47:30.539Z,98.64
2019-02-03T02:48:29.315Z,99.5
2019-02-03T02:49:28.027Z,99.64
2019-02-03T02:50:26.649Z,99.99
2019-02-03T02:51:25.199Z,99.99
2019-02-03T02:52:23.883Z,99.99
2019-02-03T02:53:22.452Z,99.99
2019-02-03T02:54:21.114Z,98.93
2019-02-03T02:55:19.860Z,98.83
2019-02-03T02:56:18.414Z,99.02
2019-02-03T02:57:16.952Z,98.55
2019-02-03T02:58:15.683Z,98.64
2019-02-03T02:59:14.236Z,99.02
2019-02-03T03:00:12.812Z,98.93
2019-02-03T03:01:11.424Z,98.83
2019-02-03T03:02:09.961Z,99.02
2019-02-03T03:03:08.498Z,99.02
2019-02-03T03:04:07.168Z,99.02
2019-02-03T03:05:05.742Z,98.83
2019-02-03T03:06:04.517Z,98.93
2019-02-03T03:07:03.117Z,99.02
2019-02-03T03:08:01.809Z,98.83
2019-02-03T03:09:00.359Z,99.69
2019-02-03T03:09:58.908Z,99.69
2019-02-03T03:10:57.480Z,99.5
2019-02-03T03:11:56.012Z,98.83
2019-02-03T03:12:54.571Z,99.02
2019-02-03T03:13:53.187Z,98.93
2019-02-03T03:14:51.784Z,98.45
2019-02-03T03:15:50.361Z,98.45
2019-02-03T03:16:48.925Z,98.55
2019-02-03T03:17:47.642Z,98.55
2019-02-03T03:18:46.194Z,98.83
2019-02-03T03:19:44.723Z,99.99
2019-02-03T03:20:43.340Z,99.99
2019-02-03T03:21:41.936Z,99.99
2019-02-03T03:22:40.606Z,99.99
2019-02-03T03:23:39.138Z,99.99
2019-02-03T03:24:37.692Z,99.99
2019-02-03T03:25:36.233Z,99.99
2019-02-03T03:26:34.758Z,99.99
2019-02-03T03:27:33.326Z,99.99
2019-02-03T03:28:31.866Z,99.99
2019-02-03T03:29:30.443Z,99.99
2019-02-03T03:30:29.083Z,99.99
2019-02-03T03:31:27.704Z,99.99
2019-02-03T03:32:26.368Z,99.99
2019-02-03T03:33:25.071Z,99.99
2019-02-03T03:34:23.466Z,99.99
2019-02-03T03:35:22.038Z,99.99
2019-02-03T03:36:20.534Z,99.99
2019-02-03T03:37:19.178Z,99.99
2019-02-03T03:38:17.915Z,99.99
2019-02-03T03:39:16.516Z,99.99
2019-02-03T03:40:15.146Z,99.99
2019-02-03T03:41:13.739Z,99.99
2019-02-03T03:42:12.295Z,99.99
2019-02-03T03:43:10.910Z,99.99
2019-02-03T03:44:09.523Z,99.99
2019-02-03T03:45:08.140Z,99.99
2019-02-03T03:46:06.878Z,99.99
2019-02-03T03:47:05.166Z,99.99
2019-02-03T03:48:03.857Z,99.99
2019-02-03T03:49:02.406Z,99.99
2019-02-03T03:50:00.981Z,99.99
2019-02-03T03:50:59.553Z,99.99
2019-02-03T03:51:58.102Z,99.99
2019-02-03T03:52:56.665Z,99.99
2019-02-03T03:53:55.201Z,99.99
2019-02-03T03:54:53.766Z,99.99
2019-02-03T03:55:52.319Z,99.99
2019-02-03T03:56:50.910Z,99.99
2019-02-03T03:57:49.541Z,99.99
2019-02-03T03:58:48.055Z,99.99
2019-02-03T03:59:46.599Z,99.99
2019-02-03T04:00:45.253Z,99.99
2019-02-03T04:01:43.901Z,99.99
2019-02-03T04:02:42.450Z,99.99
2019-02-03T04:03:41.100Z,99.99
2019-02-03T04:04:39.771Z,99.99
2019-02-03T04:05:38.356Z,99.99
2019-02-03T04:06:36.861Z,99.99
2019-02-03T04:07:35.422Z,99.99
2019-02-03T04:08:44.536Z,99.99
2019-02-03T04:09:32.538Z,99.99
2019-02-03T04:10:31.115Z,99.99
2019-02-03T04:11:29.783Z,99.99
2019-02-03T04:12:28.341Z,99.99
2019-02-03T04:13:26.918Z,99.99
2019-02-03T04:14:25.495Z,99.99
2019-02-03T04:15:24.037Z,99.99
2019-02-03T04:16:22.592Z,99.99
2019-02-03T04:17:21.342Z,99.99
2019-02-03T04:18:20.019Z,99.99
2019-02-03T04:19:18.578Z,99.99
2019-02-03T04:20:17.136Z,99.99
2019-02-03T04:21:15.676Z,99.99
2019-02-03T04:22:14.208Z,99.99
2019-02-03T04:23:12.754Z,99.99
2019-02-03T04:24:11.406Z,99.99
2019-02-03T04:25:09.999Z,99.99
2019-02-03T04:26:08.559Z,99.99
2019-02-03T04:27:07.178Z,99.99
2019-02-03T04:28:05.855Z,99.99
2019-02-03T04:29:04.411Z,99.99
2019-02-03T04:30:03.065Z,99.99
2019-02-03T04:31:01.689Z,99.99
2019-02-03T04:32:00.258Z,99.99
2019-02-03T04:32:58.816Z,99.99
2019-02-03T04:33:57.416Z,99.99
2019-02-03T04:34:55.962Z,99.99
2019-02-03T04:35:54.505Z,99.99
2019-02-03T04:36:53.358Z,99.99
2019-02-03T04:37:52.076Z,99.99
2019-02-03T04:38:57.907Z,99.99
2019-02-03T04:39:49.312Z,99.99
2019-02-03T04:40:47.907Z,99.99
2019-02-03T04:41:46.424Z,99.99
2019-02-03T04:42:44.985Z,99.99
2019-02-03T04:43:43.525Z,99.99
2019-02-03T04:44:42.072Z,99.99
2019-02-03T04:45:40.603Z,99.99
2019-02-03T04:46:39.141Z,99.99
2019-02-03T04:47:37.796Z,99.99
2019-02-03T04:48:36.316Z,99.99
2019-02-03T04:49:34.841Z,99.99
2019-02-03T04:50:34.951Z,99.99
2019-02-03T04:51:32.105Z,99.99
2019-02-03T04:52:30.663Z,99.99
2019-02-03T04:53:29.379Z,99.99
2019-02-03T04:54:28.034Z,99.99
2019-02-03T04:55:26.625Z,99.99
2019-02-03T04:56:25.187Z,99.99
2019-02-03T04:57:23.742Z,99.99
2019-02-03T04:58:22.385Z,99.99
2019-02-03T04:59:20.960Z,99.99
2019-02-03T05:00:19.528Z,99.99
2019-02-03T05:01:18.049Z,99.99
2019-02-03T05:02:16.608Z,99.99
2019-02-03T05:03:15.173Z,99.99
2019-02-03T05:04:13.784Z,99.99
2019-02-03T05:05:12.325Z,99.99
2019-02-03T05:06:10.881Z,99.99
2019-02-03T05:07:09.423Z,99.99
2019-02-03T05:08:08.044Z,99.99
2019-02-03T05:09:10.898Z,99.99
2019-02-03T05:10:05.219Z,99.99
2019-02-03T05:11:03.931Z,99.99
2019-02-03T05:12:02.495Z,99.99
2019-02-03T05:13:01.044Z,99.99
2019-02-03T05:13:59.597Z,99.99
2019-02-03T05:14:58.150Z,99.99
2019-02-03T05:15:56.706Z,99.73
2019-02-03T05:16:55.462Z,99.83
2019-02-03T05:17:54.011Z,99.26
2019-02-03T05:18:52.579Z,99.99
2019-02-03T05:19:51.199Z,99.64
2019-02-03T05:20:49.805Z,99.99
2019-02-03T05:21:48.376Z,99.99
2019-02-03T05:22:46.913Z,99.99
2019-02-03T05:23:45.651Z,99.99
2019-02-03T05:24:44.209Z,99.99
2019-02-03T05:25:42.773Z,99.99
2019-02-03T05:26:41.334Z,99.99
2019-02-03T05:27:39.897Z,99.99
2019-02-03T05:28:38.447Z,99.99
2019-02-03T05:29:37.003Z,99.99
2019-02-03T05:30:35.760Z,99.99
2019-02-03T05:31:34.332Z,99.99
2019-02-03T05:32:32.860Z,99.99
2019-02-03T05:33:31.612Z,99.99
2019-02-03T05:34:30.159Z,99.99
2019-02-03T05:35:28.719Z,99.99
2019-02-03T05:36:27.299Z,99.99
2019-02-03T05:37:25.882Z,99.99
2019-02-03T05:38:24.435Z,99.99
2019-02-03T05:39:25.345Z,99.97
2019-02-03T05:40:21.833Z,99.99
2019-02-03T05:41:20.469Z,99.99
2019-02-03T05:42:19.021Z,99.99
2019-02-03T05:43:17.761Z,99.99
2019-02-03T05:44:16.318Z,99.99
2019-02-03T05:45:14.861Z,99.99
2019-02-03T05:46:13.539Z,99.99
2019-02-03T05:47:12.115Z,99.99
2019-02-03T05:48:10.672Z,99.99
2019-02-03T05:49:09.235Z,99.99
2019-02-03T05:50:07.787Z,99.99
2019-02-03T05:51:06.334Z,99.99
2019-02-03T05:52:04.864Z,99.99
2019-02-03T05:53:03.600Z,99.99
2019-02-03T05:54:02.185Z,99.99
2019-02-03T05:55:00.784Z,99.99
2019-02-03T05:55:59.451Z,99.99
2019-02-03T05:56:58.171Z,99.99
2019-02-03T05:57:56.723Z,99.99
2019-02-03T05:58:55.293Z,99.99
2019-02-03T05:59:53.853Z,99.99
2019-02-03T06:00:52.461Z,99.99
2019-02-03T06:01:51.159Z,99.99
2019-02-03T06:02:49.787Z,99.99
2019-02-03T06:03:48.359Z,99.99
2019-02-03T06:04:46.910Z,99.99
2019-02-03T06:05:45.521Z,99.99
2019-02-03T06:06:44.091Z,99.99
2019-02-03T06:07:42.637Z,99.99
2019-02-03T06:08:41.368Z,99.99
2019-02-03T06:09:39.926Z,99.99
2019-02-03T06:10:38.473Z,99.99
2019-02-03T06:11:37.020Z,99.99
2019-02-03T06:12:35.580Z,99.99
2019-02-03T06:13:34.127Z,99.58
2019-02-03T06:14:32.737Z,99.58
2019-02-03T06:15:31.466Z,99.58
2019-02-03T06:16:30.095Z,99.58
2019-02-03T06:17:28.618Z,99.3
2019-02-03T06:18:27.271Z,98.73
2019-02-03T06:19:25.920Z,98.92
2019-02-03T06:20:24.492Z,98.45
2019-02-03T06:21:23.045Z,97.78
2019-02-03T06:22:21.668Z,97.97
2019-02-03T06:23:20.237Z,98.16
2019-02-03T06:24:18.773Z,97.97
2019-02-03T06:25:17.329Z,97.31
2019-02-03T06:26:15.999Z,97.12
2019-02-03T06:27:14.621Z,97.41
2019-02-03T06:28:13.218Z,97.31
2019-02-03T06:29:11.824Z,97.69
2019-02-03T06:30:10.375Z,97.41
2019-02-03T06:31:09.045Z,97.31
2019-02-03T06:32:07.657Z,97.6
2019-02-03T06:33:06.279Z,97.5
2019-02-03T06:34:04.816Z,97.31
2019-02-03T06:35:03.368Z,97.69
2019-02-03T06:36:01.917Z,97.41
2019-02-03T06:37:00.473Z,97.5
2019-02-03T06:37:59.015Z,97.41
2019-02-03T06:38:57.562Z,97.78
2019-02-03T06:39:56.105Z,96.74
2019-02-03T06:40:54.658Z,97.02
2019-02-03T06:41:53.405Z,96.64
2019-02-03T06:42:52.015Z,96.83
2019-02-03T06:43:50.534Z,96.83
2019-02-03T06:44:49.104Z,96.64
2019-02-03T06:45:47.804Z,96.36
2019-02-03T06:46:46.326Z,96.64
2019-02-03T06:47:44.890Z,96.74
2019-02-03T06:48:43.655Z,96.55
2019-02-03T06:49:42.207Z,95.79
2019-02-03T06:50:40.733Z,96.17
2019-02-03T06:51:39.263Z,95.89
2019-02-03T06:52:37.884Z,95.89
2019-02-03T06:53:36.424Z,96.17
2019-02-03T06:54:35.113Z,95.41
2019-02-03T06:55:33.700Z,95.41
2019-02-03T06:56:32.261Z,95.22
2019-02-03T06:57:30.818Z,95.41
2019-02-03T06:58:29.474Z,94.74
2019-02-03T06:59:28.088Z,94.84
2019-02-03T07:00:26.619Z,94.74
2019-02-03T07:01:25.176Z,94.46
2019-02-03T07:02:23.838Z,94.56
2019-02-03T07:03:22.446Z,93.8
2019-02-03T07:04:20.940Z,94.18
2019-02-03T07:05:19.466Z,94.37
2019-02-03T07:06:18.015Z,94.27
2019-02-03T07:07:16.566Z,93.7
2019-02-03T07:08:15.100Z,93.89
2019-02-03T07:09:14.604Z,93.6
2019-02-03T07:10:12.414Z,94.18
2019-02-03T07:11:10.975Z,94.08
2019-02-03T07:12:09.595Z,95.12
2019-02-03T07:13:08.201Z,94.27
2019-02-03T07:14:06.778Z,94.37
2019-02-03T07:15:05.433Z,94.27
2019-02-03T07:16:04.189Z,94.27
2019-02-03T07:17:02.743Z,94.37
2019-02-03T07:18:01.495Z,93.6
2019-02-03T07:19:00.029Z,93.41
2019-02-03T07:19:58.584Z,93.51
2019-02-03T07:20:57.393Z,93.32
2019-02-03T07:21:56.142Z,93.13
2019-02-03T07:22:54.679Z,93.23
2019-02-03T07:23:53.242Z,93.51
2019-02-03T07:24:51.805Z,93.32
2019-02-03T07:25:50.361Z,92.56
2019-02-03T07:26:48.919Z,92.94
2019-02-03T07:27:47.491Z,92.94
2019-02-03T07:28:46.079Z,92.94
2019-02-03T07:29:44.621Z,92.66
2019-02-03T07:30:43.299Z,92.94
2019-02-03T07:31:42.160Z,93.41
2019-02-03T07:32:40.697Z,93.51
2019-02-03T07:33:39.801Z,93.8
2019-02-03T07:34:38.349Z,94.08
2019-02-03T07:35:36.901Z,94.18
2019-02-03T07:36:35.563Z,93.8
2019-02-03T07:37:34.104Z,93.41
2019-02-03T07:38:32.656Z,93.41
2019-02-03T07:39:31.253Z,93.32
2019-02-03T07:40:29.880Z,93.51
2019-02-03T07:41:28.388Z,93.41
2019-02-03T07:42:26.954Z,93.23
2019-02-03T07:43:25.533Z,93.32
2019-02-03T07:44:24.120Z,93.51
2019-02-03T07:45:22.933Z,93.8
2019-02-03T07:46:21.551Z,93.41
2019-02-03T07:47:20.163Z,93.51
2019-02-03T07:48:18.719Z,93.89
2019-02-03T07:49:17.303Z,93.8
2019-02-03T07:50:15.977Z,93.51
2019-02-03T07:51:14.556Z,93.51
2019-02-03T07:52:13.139Z,93.04
2019-02-03T07:53:11.962Z,93.32
2019-02-03T07:54:10.535Z,93.13
2019-02-03T07:55:09.209Z,92.94
2019-02-03T07:56:07.937Z,92.66
2019-02-03T07:57:06.485Z,92.75
2019-02-03T07:58:05.047Z,93.04
2019-02-03T07:59:03.595Z,92.85
2019-02-03T08:00:02.268Z,92.94
2019-02-03T08:01:00.894Z,92.75
2019-02-03T08:01:59.728Z,92.75
2019-02-03T08:02:58.304Z,92.75
2019-02-03T08:03:56.854Z,92.94
2019-02-03T08:04:55.608Z,92.28
2019-02-03T08:05:54.269Z,92.94
2019-02-03T08:06:52.818Z,92.85
2019-02-03T08:07:51.351Z,92.56
2019-02-03T08:08:49.948Z,92.28
2019-02-03T08:09:48.527Z,92.66
2019-02-03T08:10:47.168Z,92.47
2019-02-03T08:11:45.858Z,91.8
2019-02-03T08:12:44.419Z,91.61
2019-02-03T08:13:42.982Z,91.99
2019-02-03T08:14:41.811Z,91.99
2019-02-03T08:15:40.389Z,91.8
2019-02-03T08:16:39.036Z,91.71
2019-02-03T08:17:40.566Z,91.42
2019-02-03T08:18:36.163Z,91.33
2019-02-03T08:19:34.736Z,90.71
2019-02-03T08:20:33.359Z,90.8
2019-02-03T08:21:31.993Z,90.8
2019-02-03T08:22:30.537Z,90.23
2019-02-03T08:23:29.152Z,89.76
2019-02-03T08:24:27.925Z,89.57
2019-02-03T08:25:26.473Z,89.57
2019-02-03T08:26:25.567Z,89.67
2019-02-03T08:27:24.132Z,89.76
2019-02-03T08:28:22.703Z,89.57
2019-02-03T08:29:21.371Z,89.47
2019-02-03T08:30:20.121Z,89.38
2019-02-03T08:31:18.559Z,89.38
2019-02-03T08:32:17.161Z,89.38
2019-02-03T08:33:15.823Z,89.19
2019-02-03T08:34:14.417Z,89.28
2019-02-03T08:35:13.017Z,89.09
2019-02-03T08:36:11.792Z,88.71
2019-02-03T08:37:10.346Z,88.81
2019-02-03T08:38:08.878Z,88.9
2019-02-03T08:39:07.608Z,88.71
2019-02-03T08:40:06.147Z,88.9
2019-02-03T08:41:04.705Z,88.53
2019-02-03T08:42:03.306Z,88.62
2019-02-03T08:43:01.834Z,88.43
2019-02-03T08:44:00.404Z,88.24
2019-02-03T08:44:58.980Z,87.67
2019-02-03T08:45:57.539Z,87.38
2019-02-03T08:46:56.148Z,87.67
2019-02-03T08:47:54.692Z,87.67
2019-02-03T08:48:53.477Z,87.67
2019-02-03T08:49:52.110Z,87.57
2019-02-03T08:50:50.664Z,87.76
2019-02-03T08:51:49.403Z,87.01
2019-02-03T08:52:51.027Z,86.63
2019-02-03T08:53:46.607Z,86.72
2019-02-03T08:54:57.596Z,87.19
2019-02-03T08:55:43.966Z,86.15
2019-02-03T08:56:42.484Z,87.01
2019-02-03T08:57:42.782Z,86.82
2019-02-03T08:58:39.938Z,86.91
2019-02-03T08:59:38.457Z,87.67
2019-02-03T09:00:37.032Z,86.72
2019-02-03T09:01:37.655Z,86.63
2019-02-03T09:02:36.226Z,86.82
2019-02-03T09:03:34.783Z,86.34
2019-02-03T09:04:33.335Z,86.15
2019-02-03T09:05:32.061Z,85.96
2019-02-03T09:06:30.604Z,86.05
2019-02-03T09:07:29.328Z,86.24
2019-02-03T09:08:27.964Z,86.24
2019-02-03T09:09:26.541Z,86.24
2019-02-03T09:10:25.115Z,85.86
2019-02-03T09:11:23.728Z,85.86
2019-02-03T09:12:22.330Z,85.86
2019-02-03T09:13:20.880Z,85.68
2019-02-03T09:14:19.453Z,85.68
2019-02-03T09:15:19.516Z,85.3
2019-02-03T09:16:16.549Z,85.49
2019-02-03T09:17:15.116Z,85.3
2019-02-03T09:18:13.854Z,85.34
2019-02-03T09:19:12.427Z,84.82
2019-02-03T09:20:11.013Z,84.34
2019-02-03T09:21:09.632Z,84.86
2019-02-03T09:22:08.233Z,84.48
2019-02-03T09:23:06.777Z,84.2
2019-02-03T09:24:05.386Z,83.34
2019-02-03T09:25:04.094Z,83.62
2019-02-03T09:27:44.454Z,83.91
2019-02-03T09:28:43.057Z,83.91
2019-02-03T09:29:41.859Z,83.62
2019-02-03T09:30:40.411Z,83.72
2019-02-03T09:31:39.000Z,83.25
2019-02-03T09:32:37.632Z,83.15
2019-02-03T09:33:36.202Z,83.53
2019-02-03T09:34:34.773Z,82.87
2019-02-03T09:35:33.332Z,82.87
2019-02-03T09:36:32.114Z,82.87
2019-02-03T09:37:30.631Z,82.87
2019-02-03T09:39:53.391Z,82.1
2019-02-03T09:40:59.639Z,82.1
2019-02-03T09:41:50.533Z,81.63
2019-02-03T09:42:49.075Z,81.44
2019-02-03T09:43:47.722Z,81.77
2019-02-03T09:44:46.302Z,81.77
2019-02-03T09:45:44.873Z,81.86
2019-02-03T09:46:43.735Z,81.38
2019-02-03T09:47:42.282Z,81.16
2019-02-03T09:48:40.826Z,81.35
2019-02-03T09:49:40.614Z,81.35
2019-02-03T09:50:38.274Z,81.44
2019-02-03T09:51:36.806Z,81.82
2019-02-03T09:52:35.354Z,82.01
2019-02-03T09:53:33.920Z,81.82
2019-02-03T09:54:32.471Z,81.73
2019-02-03T09:55:31.043Z,81.44
2019-02-03T09:56:29.574Z,82.2
2019-02-03T09:57:28.118Z,82.2
2019-02-03T09:58:26.656Z,81.73
2019-02-03T09:59:25.318Z,81.82
2019-02-03T10:00:24.323Z,81.35
2019-02-03T10:01:22.897Z,81.92
2019-02-03T10:02:21.451Z,81.59
2019-02-03T10:03:20.143Z,81.49
2019-02-03T10:04:18.697Z,82.26
2019-02-03T10:05:17.452Z,82.54
2019-02-03T10:06:16.201Z,83.2
2019-02-03T10:07:14.770Z,82.64
2019-02-03T10:08:15.857Z,82.82
2019-02-03T10:09:12.084Z,82.49
2019-02-03T10:10:10.623Z,82.77
2019-02-03T10:11:11.766Z,82.39
2019-02-03T10:12:07.800Z,82.58
2019-02-03T10:13:06.385Z,81.92
2019-02-03T10:14:05.106Z,82.2
2019-02-03T10:15:03.871Z,81.63
2019-02-03T10:16:02.455Z,81.25
2019-02-03T10:17:00.985Z,81.44
2019-02-03T10:17:59.676Z,81.06
2019-02-03T10:18:58.256Z,80.77
2019-02-03T10:19:56.770Z,81.44
2019-02-03T10:20:55.335Z,81.35
2019-02-03T10:21:53.963Z,81.35
2019-02-03T10:22:52.543Z,81.44
2019-02-03T10:23:51.088Z,81.16
2019-02-03T10:24:49.796Z,81.25
2019-02-03T10:25:48.368Z,80.87
2019-02-03T10:26:47.032Z,80.77
2019-02-03T10:27:45.796Z,80.96
2019-02-03T10:28:46.552Z,81.16
2019-02-03T10:29:42.900Z,80.96
2019-02-03T10:30:41.464Z,81.44
2019-02-03T10:31:39.990Z,80.68
2019-02-03T10:32:38.542Z,80.49
2019-02-03T10:33:37.070Z,80.87
2019-02-03T10:34:35.586Z,80.21
2019-02-03T10:35:34.181Z,80.68
2019-02-03T10:36:32.713Z,80.87
2019-02-03T10:37:31.501Z,80.87
2019-02-03T10:38:30.286Z,80.58
2019-02-03T10:39:28.853Z,80.49
2019-02-03T10:40:27.529Z,79.83
2019-02-03T10:41:26.148Z,79.83
2019-02-03T10:42:24.690Z,80.49
2019-02-03T10:43:23.237Z,80.3
2019-02-03T10:44:21.863Z,80.11
2019-02-03T10:45:20.425Z,79.54
2019-02-03T10:46:19.108Z,79.63
2019-02-03T10:47:17.748Z,78.97
2019-02-03T10:48:16.337Z,79.16
2019-02-03T10:49:14.893Z,79.11
2019-02-03T10:50:13.584Z,79.11
2019-02-03T10:51:12.191Z,79.39
2019-02-03T10:52:10.897Z,78.53
2019-02-03T10:53:09.523Z,78.53
2019-02-03T10:54:08.096Z,77.77
2019-02-03T10:55:06.765Z,77.68
2019-02-03T10:56:05.551Z,77.97
2019-02-03T10:57:04.122Z,77.87
2019-02-03T10:58:02.684Z,77.68
2019-02-03T10:59:01.247Z,77.49
2019-02-03T10:59:59.881Z,77.39
2019-02-03T11:00:58.426Z,77.77
2019-02-03T11:01:56.987Z,77.58
2019-02-03T11:02:55.901Z,77.39
2019-02-03T11:03:54.446Z,77.11
2019-02-03T11:04:53.005Z,77.49
2019-02-03T11:05:51.766Z,77.58
2019-02-03T11:06:50.298Z,77.77
2019-02-03T11:07:48.896Z,78.53
2019-02-03T11:08:47.524Z,78.34
2019-02-03T11:09:46.046Z,78.34
2019-02-03T11:10:44.590Z,77.58
2019-02-03T11:11:43.191Z,77.58
2019-02-03T11:12:41.788Z,77.58
2019-02-03T11:13:40.286Z,77.39
2019-02-03T11:14:39.014Z,77.11
2019-02-03T11:15:37.620Z,77.45
2019-02-03T11:16:36.216Z,77.55
2019-02-03T11:17:34.778Z,77.45
2019-02-03T11:18:33.486Z,77.58
2019-02-03T11:19:32.178Z,77.45
2019-02-03T11:20:30.743Z,77.45
2019-02-03T11:21:29.280Z,77.39
2019-02-03T11:22:27.816Z,77.58
2019-02-03T11:23:26.389Z,77.58
2019-02-03T11:24:24.973Z,77.55
2019-02-03T11:25:23.771Z,77.83
2019-02-03T11:26:22.294Z,77.45
2019-02-03T11:27:20.834Z,77.45
2019-02-03T11:28:19.650Z,77.68
2019-02-03T11:29:18.230Z,77.58
2019-02-03T11:30:16.872Z,77.3
2019-02-03T11:31:15.467Z,76.92
2019-02-03T11:32:14.020Z,76.35
2019-02-03T11:33:12.579Z,76.29
2019-02-03T11:34:11.172Z,75.91
2019-02-03T11:35:09.946Z,75.53
2019-02-03T11:36:08.493Z,75.34
2019-02-03T11:37:07.044Z,74.96
2019-02-03T11:38:05.817Z,74.48
2019-02-03T11:39:04.427Z,73.97
2019-02-03T11:40:02.981Z,74.48
2019-02-03T11:41:01.568Z,74.29
2019-02-03T11:42:00.121Z,74.44
2019-02-03T11:42:58.845Z,73.78
2019-02-03T11:43:57.634Z,74.35
2019-02-03T11:44:56.259Z,74.44
2019-02-03T11:45:54.783Z,74.35
2019-02-03T11:46:53.440Z,74.35
2019-02-03T11:47:52.162Z,72.64
2019-02-03T11:48:50.882Z,72.74
2019-02-03T11:49:49.660Z,73.11
2019-02-03T11:50:48.236Z,73.3
2019-02-03T11:51:46.813Z,73.49
2019-02-03T11:52:45.514Z,73.3
2019-02-03T11:53:44.157Z,73.97
2019-02-03T11:54:42.684Z,73.11
2019-02-03T11:55:41.264Z,73.49
2019-02-03T11:56:39.828Z,73.59
2019-02-03T11:57:38.499Z,73.3
2019-02-03T11:58:37.087Z,73.97
2019-02-03T11:59:35.761Z,73.21
2019-02-03T12:00:34.334Z,73.3
2019-02-03T12:01:32.960Z,73.4
2019-02-03T12:02:41.629Z,73.59
2019-02-03T12:03:30.361Z,73.78
2019-02-03T12:04:28.895Z,74.73
2019-02-03T12:05:27.426Z,74.44
2019-02-03T12:06:26.195Z,74.35
2019-02-03T12:07:24.773Z,73.69
2019-02-03T12:08:23.469Z,73.69
2019-02-03T12:09:22.197Z,73.97
2019-02-03T12:10:20.792Z,74.26
2019-02-03T12:11:19.388Z,74.73
2019-02-03T12:12:18.011Z,74.26
2019-02-03T12:13:16.588Z,73.97
2019-02-03T12:14:15.130Z,73.97
2019-02-03T12:15:13.739Z,74.07
2019-02-03T12:16:12.344Z,73.69
2019-02-03T12:17:11.010Z,73.88
2019-02-03T12:18:09.714Z,74.26
2019-02-03T12:19:08.349Z,74.44
2019-02-03T12:20:06.894Z,74.35
2019-02-03T12:21:05.442Z,74.63
2019-02-03T12:22:04.082Z,74.44
2019-02-03T12:23:02.681Z,74.44
2019-02-03T12:24:01.189Z,74.44
2019-02-03T12:24:59.772Z,74.63
2019-02-03T12:25:58.364Z,74.44
2019-02-03T12:26:56.875Z,74.73
2019-02-03T12:27:55.458Z,75.11
2019-02-03T12:28:54.157Z,75.21
2019-02-03T12:29:52.768Z,75.3
2019-02-03T12:30:51.695Z,75.21
2019-02-03T12:31:50.243Z,75.21
2019-02-03T12:32:48.787Z,75.59
2019-02-03T12:33:47.328Z,75.21
2019-02-03T12:36:27.732Z,75.4
2019-02-03T12:37:26.293Z,75.78
2019-02-03T13:00:36.163Z,75.49
2019-02-03T13:01:34.829Z,76.06
2019-02-03T13:02:33.499Z,76.2
2019-02-03T13:03:32.208Z,75.87